Time;durP1;ratioP1;P1;durP2;ratioP2;P2;SDS_P1;SDS_P2;PMS_P1;PMS_P2;Temp;Humidity;BMP_temperature;BMP_pressure;BME280_temperature;BME280_humidity;BME280_pressure;Samples;Min_cycle;Max_cycle;Signal;HPM_P1;HPM_P2
2022/12/21 00:02:09;;;;;;;23.60;12.52;;;-3.20;97.60;;;;;;5126926;28;20020;-80
2022/12/21 00:04:35;;;;;;;21.83;11.70;;;-3.20;97.40;;;;;;5118751;28;20115;-79
2022/12/21 00:07:00;;;;;;;23.17;11.70;;;-3.20;97.60;;;;;;5116487;28;20137;-78
2022/12/21 00:09:26;;;;;;;23.15;11.88;;;-3.20;98.00;;;;;;5115678;28;20046;-79
2022/12/21 00:11:52;;;;;;;17.85;10.93;;;-3.20;98.20;;;;;;5115673;28;20092;-78
2022/12/21 00:14:18;;;;;;;17.27;9.60;;;-3.20;98.00;;;;;;5075546;28;20538;-78
2022/12/21 00:16:44;;;;;;;20.33;13.02;;;-3.20;98.00;;;;;;5112699;28;20016;-78
2022/12/21 00:19:15;;;;;;;25.92;12.52;;;-3.20;97.80;;;;;;5108326;28;20050;-78
2022/12/21 00:21:41;;;;;;;22.42;12.57;;;-3.20;97.70;;;;;;5115010;28;20016;-78
2022/12/21 00:24:07;;;;;;;21.50;11.63;;;-3.20;97.60;;;;;;5118928;28;20050;-78
2022/12/21 00:26:36;;;;;;;19.75;11.27;;;-3.20;97.40;;;;;;5112037;28;20475;-80
2022/12/21 00:29:03;;;;;;;18.38;10.88;;;-3.20;97.30;;;;;;5114706;28;20019;-81
2022/12/21 00:31:36;;;;;;;16.25;10.40;;;-3.10;97.30;;;;;;5114795;28;20049;-81
2022/12/21 00:34:02;;;;;;;20.63;10.07;;;-3.10;97.40;;;;;;5114489;28;20020;-82
2022/12/21 00:36:29;;;;;;;16.85;11.45;;;-3.10;97.70;;;;;;5114611;28;20032;-81
2022/12/21 00:38:56;;;;;;;18.98;9.63;;;-3.10;98.00;;;;;;5109785;28;20028;-80
2022/12/21 00:41:26;;;;;;;18.98;12.13;;;-3.10;98.30;;;;;;5100206;28;20059;-80
2022/12/21 00:43:53;;;;;;;18.23;11.43;;;-3.10;98.40;;;;;;5115382;28;20060;-81
2022/12/21 00:46:32;;;;;;;15.57;9.95;;;-3.10;98.50;;;;;;5115687;28;20027;-79
2022/12/21 00:48:59;;;;;;;20.23;10.93;;;-3.10;97.90;;;;;;5114715;28;20376;-81
2022/12/21 00:51:26;;;;;;;;;;;-3.10;97.90;;;;;;5115045;28;20038;-77
2022/12/21 00:53:53;;;;;;;17.92;9.45;;;-3.10;98.00;;;;;;5109231;28;20006;-78
2022/12/21 00:56:20;;;;;;;19.67;12.30;;;-3.10;98.40;;;;;;5105519;28;20050;-78
2022/12/21 00:58:47;;;;;;;25.08;11.95;;;-3.10;98.50;;;;;;5114509;28;20391;-78
2022/12/21 01:01:22;;;;;;;20.58;11.80;;;-3.10;98.60;;;;;;5096738;28;20468;-83
2022/12/21 01:03:49;;;;;;;24.70;13.80;;;-3.00;98.60;;;;;;5115676;28;20073;-79
2022/12/21 01:06:21;;;;;;;21.20;11.82;;;-3.00;98.80;;;;;;5097232;28;20111;-81
2022/12/21 01:08:47;;;;;;;23.13;11.73;;;-3.00;98.50;;;;;;5093579;28;20107;-82
2022/12/21 01:11:15;;;;;;;23.65;12.85;;;-3.00;98.50;;;;;;5095918;28;20027;-84
2022/12/21 01:13:41;;;;;;;18.48;11.57;;;-3.00;98.40;;;;;;5087392;28;20024;-83
2022/12/21 01:16:20;;;;;;;18.10;12.05;;;-3.00;98.20;;;;;;5093577;28;20389;-85
2022/12/21 01:18:47;;;;;;;20.38;10.82;;;-3.00;98.20;;;;;;5106880;28;20028;-83
2022/12/21 01:21:26;;;;;;;17.05;10.25;;;-3.00;98.40;;;;;;5105833;28;20103;-83
2022/12/21 01:23:54;;;;;;;21.75;11.18;;;-3.00;98.60;;;;;;5097550;28;20058;-80
2022/12/21 01:26:20;;;;;;;22.52;12.27;;;-2.90;98.50;;;;;;5105597;28;20117;-83
2022/12/21 01:28:46;;;;;;;19.88;11.13;;;-3.00;98.40;;;;;;5102639;28;20020;-83
2022/12/21 01:31:12;;;;;;;24.25;11.43;;;-2.90;98.30;;;;;;5102086;28;20028;-84
2022/12/21 01:33:38;;;;;;;25.58;13.40;;;-2.90;98.10;;;;;;5086446;28;20016;-82
2022/12/21 01:36:06;;;;;;;19.65;10.93;;;-3.00;98.30;;;;;;5098065;28;20047;-84
2022/12/21 01:38:33;;;;;;;21.88;12.80;;;-2.90;98.50;;;;;;5079047;28;20477;-84
2022/12/21 01:40:58;;;;;;;22.70;13.82;;;-2.90;98.60;;;;;;5082797;28;20024;-82
2022/12/21 01:43:46;;;;;;;20.63;11.98;;;-2.90;98.40;;;;;;5080082;28;20032;-82
2022/12/21 01:46:33;;;;;;;21.98;12.27;;;-2.90;98.00;;;;;;5089858;28;20461;-82
2022/12/21 01:49:04;;;;;;;25.00;13.60;;;-2.90;98.40;;;;;;5084066;28;20020;-84
2022/12/21 01:51:35;;;;;;;27.20;12.70;;;-2.90;98.00;;;;;;5104987;28;20096;-82
2022/12/21 01:54:08;;;;;;;26.05;13.15;;;-2.90;98.20;;;;;;5073151;28;20035;-83
2022/12/21 01:56:40;;;;;;;20.85;12.70;;;-2.90;98.20;;;;;;5075411;28;20016;-83
2022/12/21 01:59:30;;;;;;;24.20;12.32;;;-2.90;98.30;;;;;;5096970;28;20031;-82
2022/12/21 02:02:00;;;;;;;23.98;12.70;;;-2.90;97.90;;;;;;5113113;28;20020;-82
2022/12/21 02:04:25;;;;;;;22.42;13.48;;;-2.90;98.20;;;;;;5116229;28;20048;-83
2022/12/21 02:06:55;;;;;;;25.13;13.88;;;-2.90;98.40;;;;;;5094462;28;20082;-83
2022/12/21 02:09:23;;;;;;;28.58;15.45;;;-2.90;98.40;;;;;;5094031;28;20020;-83
2022/12/21 02:11:52;;;;;;;25.73;16.92;;;-2.80;98.40;;;;;;5094180;28;20082;-82
2022/12/21 02:14:18;;;;;;;30.08;16.38;;;-2.80;98.40;;;;;;5094157;28;20070;-82
2022/12/21 02:16:53;;;;;;;24.38;14.00;;;-2.80;98.80;;;;;;5075802;28;20020;-83
2022/12/21 02:19:41;;;;;;;28.80;16.63;;;-2.80;99.30;;;;;;5092851;28;20032;-83
2022/12/21 02:22:43;;;;;;;32.30;15.95;;;-2.90;99.70;;;;;;5103992;28;20031;-82
2022/12/21 02:25:17;;;;;;;32.03;18.45;;;-2.90;99.90;;;;;;5028772;28;20391;-83
2022/12/21 02:28:08;;;;;;;28.88;16.35;;;-2.90;99.90;;;;;;5030357;28;20037;-82
2022/12/21 02:30:43;;;;;;;30.42;19.70;;;-2.90;99.90;;;;;;5030227;28;20033;-83
2022/12/21 02:33:26;;;;;;;34.80;19.52;;;-3.00;99.90;;;;;;5030311;28;20030;-83
2022/12/21 02:36:10;;;;;;;32.72;18.65;;;-3.00;99.90;;;;;;5031287;28;20033;-81
2022/12/21 02:38:54;;;;;;;32.80;17.65;;;-3.00;99.90;;;;;;5030599;28;20037;-83
2022/12/21 02:41:33;;;;;;;28.50;16.92;;;-3.00;99.90;;;;;;5029155;28;20609;-84
2022/12/21 02:44:14;;;;;;;33.47;16.80;;;-3.00;99.90;;;;;;5030434;28;20076;-83
2022/12/21 02:47:09;;;;;;;34.72;16.20;;;-3.00;99.90;;;;;;5031284;28;20048;-82
2022/12/21 02:49:56;;;;;;;32.20;15.68;;;-3.00;99.90;;;;;;5013583;28;20029;-82
2022/12/21 02:52:32;;;;;;;26.52;16.02;;;-3.00;99.90;;;;;;5018498;28;20051;-82
2022/12/21 02:54:59;;;;;;;26.17;14.85;;;-3.10;99.90;;;;;;5016271;28;20511;-82
2022/12/21 02:57:34;;;;;;;28.30;16.00;;;-3.10;99.90;;;;;;5039779;28;20052;-83
2022/12/21 03:00:03;;;;;;;33.38;15.75;;;-3.10;99.90;;;;;;5052875;28;20043;-82
2022/12/21 03:02:48;;;;;;;30.80;15.32;;;-3.00;99.90;;;;;;5078574;28;20024;-82
2022/12/21 03:05:30;;;;;;;27.27;13.88;;;-3.10;99.90;;;;;;5097137;28;20028;-83
2022/12/21 03:08:07;;;;;;;27.35;16.20;;;-3.10;99.90;;;;;;5096844;28;20024;-82
2022/12/21 03:10:41;;;;;;;27.27;14.88;;;-3.00;99.90;;;;;;5096024;28;20431;-83
2022/12/21 03:13:25;;;;;;;28.58;15.23;;;-3.00;99.90;;;;;;5095094;28;20086;-83
2022/12/21 03:16:18;;;;;;;25.92;17.23;;;-3.00;99.90;;;;;;5095583;28;20027;-82
2022/12/21 03:18:47;;;;;;;27.73;16.08;;;-3.00;99.90;;;;;;5095996;28;20500;-83
2022/12/21 03:21:25;;;;;;;26.17;15.73;;;-3.00;99.90;;;;;;5090969;28;20134;-83
2022/12/21 03:24:19;;;;;;;27.52;15.93;;;-3.00;99.90;;;;;;5095222;28;20143;-83
2022/12/21 03:27:23;;;;;;;25.55;14.90;;;-3.00;99.90;;;;;;5090035;28;20048;-83
2022/12/21 03:29:56;;;;;;;25.33;15.32;;;-3.00;99.90;;;;;;4994150;28;20050;-83
2022/12/21 03:32:43;;;;;;;24.85;15.10;;;-3.00;99.90;;;;;;4993729;28;20073;-83
2022/12/21 03:35:14;;;;;;;;;;;-3.00;99.90;;;;;;4994176;28;20121;-84
2022/12/21 03:37:41;;;;;;;25.50;15.88;;;-3.00;99.90;;;;;;4999395;28;19917;-82
2022/12/21 03:40:27;;;;;;;;;;;-3.00;99.90;;;;;;5011365;28;20062;-83
2022/12/21 03:43:05;;;;;;;23.90;16.33;;;-3.00;99.90;;;;;;4995202;28;19974;-83
2022/12/21 03:45:44;;;;;;;25.25;16.23;;;-3.00;99.90;;;;;;4992922;28;20300;-83
2022/12/21 03:48:42;;;;;;;25.90;15.50;;;-3.00;99.90;;;;;;4992634;28;20097;-83
2022/12/21 03:51:18;;;;;;;23.90;15.13;;;-2.90;99.90;;;;;;5012413;28;20052;-83
2022/12/21 03:53:56;;;;;;;22.30;16.15;;;-2.90;99.90;;;;;;5013868;28;20029;-83
2022/12/21 03:56:32;;;;;;;27.00;15.18;;;-2.90;99.90;;;;;;5025280;28;20026;-83
2022/12/21 03:59:00;;;;;;;24.35;14.95;;;-2.90;99.90;;;;;;5014247;28;20037;-83
2022/12/21 04:01:48;;;;;;;27.95;14.73;;;-2.80;99.90;;;;;;5014287;28;20038;-83
2022/12/21 04:04:35;;;;;;;26.20;15.45;;;-2.80;99.90;;;;;;5071001;28;20035;-81
2022/12/21 04:07:03;;;;;;;;;;;-2.90;99.90;;;;;;5117795;28;20034;-81
2022/12/21 04:09:29;;;;;;;23.67;15.07;;;-2.80;99.90;;;;;;5110383;28;19908;-82
2022/12/21 04:14:39;;;;;;;25.38;15.52;;;-2.90;99.90;;;;;;5099521;28;20027;-84
2022/12/21 04:17:06;;;;;;;26.80;16.63;;;-2.90;99.90;;;;;;5095294;28;20032;-83
2022/12/21 04:28:07;;;;;;;30.23;16.33;;;-2.90;99.90;;;;;;5093807;28;20046;-84
2022/12/21 04:30:30;;;;;;;25.25;14.77;;;-2.90;99.90;;;;;;5095204;28;20111;-83
2022/12/21 04:32:56;;;;;;;28.45;16.35;;;-2.80;99.90;;;;;;5093884;28;20044;-84
2022/12/21 04:35:28;;;;;;;27.77;13.77;;;-2.80;99.90;;;;;;5094760;28;20031;-85
2022/12/21 04:37:54;;;;;;;22.58;14.82;;;-2.80;99.90;;;;;;5094125;28;20016;-84
2022/12/21 04:40:20;;;;;;;22.48;14.35;;;-2.70;99.90;;;;;;5093072;28;20094;-84
2022/12/21 04:42:46;;;;;;;25.10;16.83;;;-2.70;99.90;;;;;;5080343;28;20039;-85
2022/12/21 04:45:12;;;;;;;22.40;13.15;;;-2.70;99.90;;;;;;5107336;28;20060;-84
2022/12/21 04:47:39;;;;;;;26.90;15.48;;;-2.70;99.90;;;;;;5094424;28;20473;-83
2022/12/21 04:50:06;;;;;;;23.92;15.23;;;-2.70;99.90;;;;;;5094766;28;20114;-83
2022/12/21 04:52:31;;;;;;;31.10;16.57;;;-2.70;99.90;;;;;;5077434;28;20024;-83
2022/12/21 04:54:57;;;;;;;21.15;15.02;;;-2.70;99.90;;;;;;5107407;28;20108;-83
2022/12/21 04:57:23;;;;;;;21.50;14.05;;;-2.70;99.90;;;;;;5096608;28;20082;-82
2022/12/21 04:59:49;;;;;;;30.95;16.33;;;-2.60;99.90;;;;;;5101638;28;20040;-85
2022/12/21 05:02:15;;;;;;;21.17;13.98;;;-2.60;99.90;;;;;;5094894;28;20039;-84
2022/12/21 05:04:41;;;;;;;23.60;14.40;;;-2.60;99.90;;;;;;5076061;28;20024;-82
2022/12/21 05:07:07;;;;;;;28.05;14.32;;;-2.60;99.90;;;;;;5098332;28;20543;-85
2022/12/21 05:09:33;;;;;;;28.77;16.35;;;-2.60;99.90;;;;;;5096262;28;20027;-83
2022/12/21 05:11:59;;;;;;;25.52;15.45;;;-2.60;99.90;;;;;;5092722;28;20024;-83
2022/12/21 05:14:28;;;;;;;26.70;16.48;;;-2.60;99.90;;;;;;5094137;28;20031;-81
2022/12/21 05:16:54;;;;;;;28.48;18.00;;;-2.60;99.90;;;;;;5092778;28;20099;-82
2022/12/21 05:19:20;;;;;;;27.23;16.48;;;-2.60;99.90;;;;;;5097370;28;20042;-84
2022/12/21 05:21:46;;;;;;;30.25;17.20;;;-2.60;99.90;;;;;;5096194;28;20028;-85
2022/12/21 05:24:12;;;;;;;31.55;16.45;;;-2.60;99.90;;;;;;5075729;28;20043;-83
2022/12/21 05:26:38;;;;;;;33.50;17.98;;;-2.60;99.90;;;;;;5098957;28;20451;-81
2022/12/21 05:29:04;;;;;;;26.85;15.82;;;-2.60;99.90;;;;;;5095314;28;20051;-83
2022/12/21 05:31:30;;;;;;;26.27;14.63;;;-2.60;99.90;;;;;;5094791;28;20032;-84
2022/12/21 05:33:56;;;;;;;30.30;16.60;;;-2.60;99.90;;;;;;5092830;28;20035;-85
2022/12/21 05:36:22;;;;;;;22.15;14.85;;;-2.60;99.90;;;;;;5094044;28;20389;-84
2022/12/21 05:38:48;;;;;;;28.10;16.38;;;-2.60;99.90;;;;;;5075826;28;20024;-84
2022/12/21 05:41:15;;;;;;;25.10;15.45;;;-2.50;99.90;;;;;;5094831;28;20016;-85
2022/12/21 05:43:41;;;;;;;29.40;15.07;;;-2.60;99.90;;;;;;5093713;28;20028;-84
2022/12/21 05:46:09;;;;;;;29.42;16.35;;;-2.60;99.90;;;;;;5093088;28;20036;-85
2022/12/21 05:48:36;;;;;;;26.15;14.48;;;-2.60;99.90;;;;;;5092747;28;20028;-86
2022/12/21 05:51:10;;;;;;;25.88;15.18;;;-2.60;99.90;;;;;;5093158;28;20047;-84
2022/12/21 05:53:39;;;;;;;30.70;15.95;;;-2.50;99.90;;;;;;5075128;28;20142;-85
2022/12/21 05:56:05;;;;;;;30.45;18.95;;;-2.60;99.90;;;;;;5086669;28;20532;-83
2022/12/21 05:58:31;;;;;;;31.80;16.50;;;-2.60;99.90;;;;;;5094487;28;20102;-84
2022/12/21 06:01:03;;;;;;;25.25;16.50;;;-2.60;99.90;;;;;;5093848;28;20407;-86
2022/12/21 06:03:29;;;;;;;32.70;14.98;;;-2.60;99.90;;;;;;5094007;28;20480;-85
2022/12/21 06:06:14;;;;;;;28.20;16.17;;;-2.60;99.90;;;;;;5084671;28;20545;-83
2022/12/21 06:08:40;;;;;;;30.92;16.70;;;-2.60;99.90;;;;;;5088651;28;20027;-82
2022/12/21 06:11:16;;;;;;;31.05;18.55;;;-2.60;99.90;;;;;;5087833;28;20047;-83
2022/12/21 06:13:54;;;;;;;32.03;18.33;;;-2.60;99.90;;;;;;5099517;28;20088;-83
2022/12/21 06:16:23;;;;;;;29.35;17.65;;;-2.60;99.90;;;;;;5095557;28;20028;-83
2022/12/21 06:18:49;;;;;;;30.77;17.00;;;-2.60;99.90;;;;;;5099737;28;20544;-83
2022/12/21 06:21:17;;;;;;;36.45;19.13;;;-2.50;99.90;;;;;;5100451;28;20096;-83
2022/12/21 06:23:43;;;;;;;;;;;-2.50;99.90;;;;;;5109308;28;20071;-82
2022/12/21 06:26:16;;;;;;;29.40;16.38;;;-2.50;99.90;;;;;;5103038;28;19923;-86
2022/12/21 06:28:46;;;;;;;25.92;15.75;;;-2.50;99.90;;;;;;5087630;28;20058;-83
2022/12/21 06:31:13;;;;;;;27.85;15.27;;;-2.50;99.90;;;;;;5093623;28;20106;-86
2022/12/21 06:33:40;;;;;;;27.57;16.00;;;-2.50;99.90;;;;;;5077221;28;20021;-84
2022/12/21 06:36:07;;;;;;;28.07;16.73;;;-2.40;99.90;;;;;;5094459;28;20031;-82
2022/12/21 06:38:34;;;;;;;33.67;17.90;;;-2.40;99.90;;;;;;5094516;28;20279;-84
2022/12/21 06:41:06;;;;;;;32.22;17.92;;;-2.40;99.90;;;;;;5092434;28;20478;-83
2022/12/21 06:43:37;;;;;;;34.15;18.48;;;-2.40;99.90;;;;;;5091885;28;20169;-84
2022/12/21 06:46:12;;;;;;;30.33;17.05;;;-2.40;99.90;;;;;;5089410;28;20040;-83
2022/12/21 06:48:39;;;;;;;31.67;16.42;;;-2.30;99.90;;;;;;5102889;28;20020;-83
2022/12/21 06:51:11;;;;;;;30.05;16.90;;;-2.30;99.90;;;;;;5084215;28;20024;-93
2022/12/21 06:53:38;;;;;;;30.35;16.88;;;-2.30;99.90;;;;;;5102757;28;20020;-89
2022/12/21 06:56:09;;;;;;;;;;;-2.30;99.90;;;;;;5081488;28;20016;-83
2022/12/21 06:58:35;;;;;;;28.83;18.25;;;-2.30;99.90;;;;;;5111239;28;19930;-87
2022/12/21 07:01:12;;;;;;;38.25;23.00;;;-2.30;99.90;;;;;;5074533;28;20459;-88
2022/12/21 07:03:43;;;;;;;28.52;17.50;;;-2.30;99.90;;;;;;5088155;28;20028;-85
2022/12/21 07:06:10;;;;;;;27.35;15.38;;;-2.30;99.90;;;;;;5087886;28;20071;-86
2022/12/21 07:08:36;;;;;;;26.00;15.77;;;-2.20;99.90;;;;;;5114294;28;20022;-82
2022/12/21 07:11:08;;;;;;;20.73;13.65;;;-2.20;99.90;;;;;;5086724;28;20024;-83
2022/12/21 07:13:39;;;;;;;24.38;15.48;;;-2.10;99.90;;;;;;5090961;28;20255;-84
2022/12/21 07:16:05;;;;;;;27.90;15.65;;;-2.20;99.90;;;;;;5093425;28;20072;-83
2022/12/21 07:18:31;;;;;;;24.35;14.43;;;-2.10;99.90;;;;;;5076200;28;20465;-85
2022/12/21 07:20:59;;;;;;;27.25;15.88;;;-2.10;99.90;;;;;;5079248;28;20051;-84
2022/12/21 07:23:26;;;;;;;24.00;13.63;;;-2.10;99.90;;;;;;5091609;28;20055;-84
2022/12/21 07:25:52;;;;;;;27.75;14.38;;;-2.10;99.90;;;;;;5095964;28;20480;-85
2022/12/21 07:28:20;;;;;;;26.73;16.08;;;-2.10;99.90;;;;;;5076843;28;20052;-84
2022/12/21 07:30:48;;;;;;;24.17;14.38;;;-2.10;99.90;;;;;;5094149;28;20043;-83
2022/12/21 07:33:18;;;;;;;23.58;15.30;;;-2.10;99.90;;;;;;5093174;28;20066;-83
2022/12/21 07:35:45;;;;;;;26.58;16.10;;;-2.10;99.90;;;;;;5096723;28;20055;-83
2022/12/21 07:38:11;;;;;;;19.13;11.82;;;-2.10;99.90;;;;;;5095410;28;20024;-84
2022/12/21 07:40:38;;;;;;;26.55;15.75;;;-2.10;99.90;;;;;;5095497;28;20032;-85
2022/12/21 07:43:08;;;;;;;31.15;16.50;;;-2.10;99.90;;;;;;5096558;28;20160;-84
2022/12/21 07:45:37;;;;;;;25.42;14.20;;;-2.10;99.90;;;;;;5095062;28;20047;-83
2022/12/21 07:48:03;;;;;;;27.40;14.05;;;-2.10;99.90;;;;;;5100510;28;20368;-85
2022/12/21 07:50:29;;;;;;;24.25;14.20;;;-2.10;99.90;;;;;;5080167;28;20032;-85
2022/12/21 07:52:58;;;;;;;27.60;15.07;;;-2.10;99.90;;;;;;5081275;28;20135;-85
2022/12/21 07:55:25;;;;;;;28.83;15.60;;;-2.10;99.90;;;;;;5068108;28;20024;-85
2022/12/21 07:57:51;;;;;;;19.30;9.93;;;-2.20;99.90;;;;;;5102613;28;20016;-84
2022/12/21 08:00:22;;;;;;;25.27;14.45;;;-2.20;99.90;;;;;;5083984;28;20059;-83
2022/12/21 08:02:48;;;;;;;19.33;12.38;;;-2.20;99.90;;;;;;5090221;28;20031;-85
2022/12/21 08:05:14;;;;;;;19.60;12.25;;;-2.20;99.90;;;;;;5096127;28;20048;-85
2022/12/21 08:07:40;;;;;;;27.35;13.52;;;-2.20;99.90;;;;;;5096631;28;20020;-84
2022/12/21 08:10:09;;;;;;;21.65;12.73;;;-2.20;99.90;;;;;;5096696;28;20093;-85
2022/12/21 08:12:38;;;;;;;21.10;11.85;;;-2.20;99.90;;;;;;5098516;28;20012;-85
2022/12/21 08:15:04;;;;;;;18.48;10.52;;;-2.20;99.90;;;;;;5105225;28;20024;-84
2022/12/21 08:17:30;;;;;;;16.55;9.25;;;-2.20;99.90;;;;;;5104499;28;20027;-84
2022/12/21 08:19:56;;;;;;;20.05;12.65;;;-2.20;99.90;;;;;;5098960;28;20032;-85
2022/12/21 08:22:23;;;;;;;17.98;10.07;;;-2.30;99.90;;;;;;5096841;28;20103;-84
2022/12/21 08:24:49;;;;;;;14.60;10.98;;;-2.30;99.90;;;;;;5079801;28;20051;-85
2022/12/21 08:27:15;;;;;;;17.85;10.98;;;-2.30;99.90;;;;;;5096093;28;20111;-85
2022/12/21 08:29:41;;;;;;;18.70;11.23;;;-2.40;99.90;;;;;;5078717;28;20047;-84
2022/12/21 08:32:07;;;;;;;18.20;10.38;;;-2.40;99.90;;;;;;5099432;28;20103;-85
2022/12/21 08:34:33;;;;;;;21.50;12.57;;;-2.40;99.90;;;;;;5078209;28;20023;-85
2022/12/21 08:37:00;;;;;;;20.70;12.80;;;-2.40;99.90;;;;;;5097794;28;20024;-84
2022/12/21 08:39:26;;;;;;;22.00;10.95;;;-2.40;99.90;;;;;;5097356;28;20024;-86
2022/12/21 08:41:52;;;;;;;17.10;13.32;;;-2.40;99.90;;;;;;5088988;28;20036;-83
2022/12/21 08:44:18;;;;;;;21.83;11.73;;;-2.40;99.90;;;;;;5091428;28;20388;-85
2022/12/21 08:46:44;;;;;;;21.85;12.63;;;-2.40;99.90;;;;;;5096428;28;20030;-83
2022/12/21 08:49:10;;;;;;;25.42;15.77;;;-2.40;99.90;;;;;;5078205;28;20380;-85
2022/12/21 08:51:37;;;;;;;21.98;12.95;;;-2.40;99.90;;;;;;5096913;28;20031;-84
2022/12/21 08:54:04;;;;;;;28.08;14.93;;;-2.40;99.90;;;;;;5078752;28;20050;-83
2022/12/21 08:56:31;;;;;;;19.80;11.60;;;-2.40;99.90;;;;;;5096461;28;20034;-84
2022/12/21 08:59:01;;;;;;;22.02;13.10;;;-2.50;99.90;;;;;;5097805;28;20141;-84
2022/12/21 09:01:27;;;;;;;21.73;12.55;;;-2.40;99.90;;;;;;5064780;28;20143;-85
2022/12/21 09:03:56;;;;;;;24.83;13.88;;;-2.40;99.90;;;;;;5081700;28;20047;-84
2022/12/21 09:06:31;;;;;;;18.55;12.25;;;-2.40;99.90;;;;;;5099769;28;20042;-87
2022/12/21 09:08:57;;;;;;;19.10;11.20;;;-2.40;99.90;;;;;;5086766;28;20023;-83
2022/12/21 09:11:23;;;;;;;23.13;12.82;;;-2.40;99.90;;;;;;5100808;28;20024;-82
2022/12/21 09:13:50;;;;;;;20.98;13.43;;;-2.40;99.90;;;;;;5111333;28;20020;-83
2022/12/21 09:16:19;;;;;;;21.90;11.77;;;-2.40;99.90;;;;;;5084307;28;20036;-84
2022/12/21 09:18:45;;;;;;;18.17;10.63;;;-2.40;99.90;;;;;;5078351;28;20027;-85
2022/12/21 09:21:15;;;;;;;24.85;13.20;;;-2.50;99.90;;;;;;5095933;28;20302;-84
2022/12/21 09:23:41;;;;;;;21.23;14.48;;;-2.50;99.90;;;;;;5077805;28;20047;-85
2022/12/21 09:26:08;;;;;;;16.55;11.25;;;-2.50;99.90;;;;;;5095308;28;20028;-84
2022/12/21 09:28:35;;;;;;;15.30;9.98;;;-2.50;99.90;;;;;;5098828;28;20024;-85
2022/12/21 09:31:13;;;;;;;16.63;10.48;;;-2.50;99.90;;;;;;5098721;28;20023;-83
2022/12/21 09:33:39;;;;;;;15.90;11.15;;;-2.50;99.90;;;;;;5069894;28;20032;-83
2022/12/21 09:36:06;;;;;;;13.57;8.23;;;-2.50;99.90;;;;;;5100761;28;20024;-85
2022/12/21 09:38:33;;;;;;;15.60;10.07;;;-2.50;99.90;;;;;;5099439;28;20070;-85
2022/12/21 09:41:15;;;;;;;20.70;11.20;;;-2.50;99.90;;;;;;5077420;28;20040;-86
2022/12/21 09:44:11;;;;;;;15.90;8.13;;;-2.50;99.90;;;;;;5095541;28;20024;-85
2022/12/21 09:46:41;;;;;;;19.15;10.05;;;-2.50;99.90;;;;;;5052584;28;20036;-84
2022/12/21 09:49:20;;;;;;;13.13;9.13;;;-2.50;99.90;;;;;;5072029;28;20495;-85
2022/12/21 09:52:10;;;;;;;16.30;8.98;;;-2.50;99.90;;;;;;5085217;28;20016;-84
2022/12/21 09:54:59;;;;;;;16.25;9.98;;;-2.50;99.90;;;;;;5099634;28;20067;-84
2022/12/21 09:57:32;;;;;;;16.30;10.18;;;-2.50;99.90;;;;;;5086888;28;20027;-83
2022/12/21 10:00:01;;;;;;;11.20;7.38;;;-2.60;99.90;;;;;;5076352;28;20097;-86
2022/12/21 10:02:32;;;;;;;15.52;10.70;;;-2.50;99.90;;;;;;5067039;28;20488;-86
2022/12/21 10:05:40;;;;;;;16.33;10.88;;;-2.60;99.90;;;;;;5081977;28;20116;-85
2022/12/21 10:08:23;;;;;;;16.63;10.05;;;-2.60;99.90;;;;;;5096305;28;20073;-86
2022/12/21 10:11:28;;;;;;;11.85;9.07;;;-2.60;99.90;;;;;;5115446;28;20419;-85
2022/12/21 10:14:12;;;;;;;12.73;9.57;;;-2.60;99.90;;;;;;5095885;28;20114;-84
2022/12/21 10:17:10;;;;;;;19.17;12.38;;;-2.60;99.90;;;;;;5124705;28;20026;-84
2022/12/21 10:20:04;;;;;;;21.73;12.20;;;-2.60;99.90;;;;;;5106045;28;20123;-84
2022/12/21 10:22:38;;;;;;;21.15;11.63;;;-2.60;99.90;;;;;;5110561;28;20012;-83
2022/12/21 10:25:23;;;;;;;13.15;9.68;;;-2.50;99.90;;;;;;5111295;28;20052;-85
2022/12/21 10:28:00;;;;;;;19.23;11.45;;;-2.60;99.90;;;;;;5096125;28;20572;-85
2022/12/21 10:30:26;;;;;;;14.18;9.43;;;-2.60;99.90;;;;;;5095925;28;20028;-85
2022/12/21 10:32:52;;;;;;;15.60;9.88;;;-2.50;99.90;;;;;;5113323;28;20023;-84
2022/12/21 10:35:22;;;;;;;13.57;9.55;;;-2.50;99.90;;;;;;5113660;28;20038;-86
2022/12/21 10:37:51;;;;;;;16.73;10.88;;;-2.60;99.90;;;;;;5078975;28;20023;-85
2022/12/21 10:40:19;;;;;;;12.35;9.27;;;-2.50;99.90;;;;;;5095998;28;20372;-82
2022/12/21 10:42:49;;;;;;;12.25;8.15;;;-2.50;99.90;;;;;;5096028;28;20736;-85
2022/12/21 10:45:17;;;;;;;15.43;9.10;;;-2.60;99.90;;;;;;5095723;28;20089;-84
2022/12/21 10:47:44;;;;;;;14.40;10.35;;;-2.50;99.90;;;;;;5098863;28;20020;-84
2022/12/21 10:50:30;;;;;;;17.33;10.93;;;-2.60;99.90;;;;;;5082672;28;20484;-85
2022/12/21 10:52:58;;;;;;;19.27;11.30;;;-2.60;99.90;;;;;;5108888;28;20472;-84
2022/12/21 10:55:24;;;;;;;13.98;7.93;;;-2.50;99.90;;;;;;5097491;28;20024;-86
2022/12/21 10:58:13;;;;;;;17.48;9.38;;;-2.50;99.90;;;;;;5092847;28;20500;-84
2022/12/21 11:00:47;;;;;;;16.88;9.43;;;-2.60;99.90;;;;;;5112489;28;20069;-85
2022/12/21 11:03:22;;;;;;;16.83;12.50;;;-2.50;99.90;;;;;;5101476;28;20476;-84
2022/12/21 11:05:50;;;;;;;19.20;11.83;;;-2.60;99.90;;;;;;5080318;28;20032;-85
2022/12/21 11:08:33;;;;;;;14.73;9.57;;;-2.60;99.90;;;;;;5093216;28;20265;-84
2022/12/21 11:11:01;;;;;;;14.75;9.80;;;-2.60;99.90;;;;;;5091984;28;20020;-85
2022/12/21 11:13:32;;;;;;;16.67;9.73;;;-2.60;99.90;;;;;;5095988;28;20028;-84
2022/12/21 11:16:23;;;;;;;16.75;9.88;;;-2.50;99.90;;;;;;5096327;28;20043;-84
2022/12/21 11:18:49;;;;;;;17.92;10.48;;;-2.50;99.90;;;;;;5095514;28;20103;-85
2022/12/21 11:21:39;;;;;;;27.35;12.15;;;-2.60;99.90;;;;;;5096891;28;20047;-85
2022/12/21 11:24:19;;;;;;;13.85;9.82;;;-2.60;99.90;;;;;;5079283;28;20083;-83
2022/12/21 11:27:11;;;;;;;18.60;11.50;;;-2.60;99.90;;;;;;5094775;28;20071;-85
2022/12/21 11:29:53;;;;;;;20.77;11.85;;;-2.50;99.90;;;;;;5078648;28;20028;-83
2022/12/21 11:32:21;;;;;;;24.00;13.85;;;-2.50;99.90;;;;;;5078872;28;20030;-84
2022/12/21 11:34:56;;;;;;;17.17;10.45;;;-2.50;99.90;;;;;;5065081;28;20321;-84
2022/12/21 11:37:41;;;;;;;20.70;13.05;;;-2.50;99.90;;;;;;5097725;28;20016;-84
2022/12/21 11:40:22;;;;;;;16.75;11.95;;;-2.50;99.90;;;;;;5084554;28;20024;-85
2022/12/21 11:43:03;;;;;;;18.02;11.93;;;-2.50;99.90;;;;;;5076883;28;20024;-84
2022/12/21 11:45:50;;;;;;;21.15;11.48;;;-2.40;99.90;;;;;;5096441;28;20071;-85
2022/12/21 11:48:35;;;;;;;15.88;10.40;;;-2.40;99.90;;;;;;5079099;28;20364;-84
2022/12/21 11:51:01;;;;;;;19.05;12.30;;;-2.40;99.90;;;;;;5078939;28;20032;-84
2022/12/21 11:53:43;;;;;;;18.45;10.20;;;-2.40;99.90;;;;;;5089415;28;20507;-85
2022/12/21 11:56:43;;;;;;;15.43;8.05;;;-2.40;99.90;;;;;;5101792;28;20032;-86
2022/12/21 11:59:27;;;;;;;15.45;8.98;;;-2.40;99.90;;;;;;5091395;28;20027;-83
2022/12/21 12:02:15;;;;;;;17.23;10.70;;;-2.30;99.90;;;;;;5101823;28;20028;-84
2022/12/21 12:05:12;;;;;;;16.67;9.75;;;-2.30;99.90;;;;;;5099644;28;20024;-85
2022/12/21 12:07:47;;;;;;;13.20;9.20;;;-2.40;99.90;;;;;;5082944;28;20073;-84
2022/12/21 12:10:22;;;;;;;14.15;9.77;;;-2.40;99.90;;;;;;5094857;28;20545;-84
2022/12/21 12:13:12;;;;;;;18.13;11.20;;;-2.40;99.90;;;;;;5108148;28;20028;-84
2022/12/21 12:15:46;;;;;;;20.23;12.18;;;-2.40;99.90;;;;;;5096275;28;20376;-84
2022/12/21 12:18:41;;;;;;;15.40;9.18;;;-2.40;99.90;;;;;;5078605;28;20017;-84
2022/12/21 12:21:15;;;;;;;16.02;10.55;;;-2.40;99.90;;;;;;5100444;28;20028;-84
2022/12/21 12:23:59;;;;;;;17.55;11.93;;;-2.40;99.90;;;;;;5110689;28;20036;-85
2022/12/21 12:26:44;;;;;;;16.25;10.43;;;-2.40;99.90;;;;;;5090172;28;20090;-84
2022/12/21 12:30:06;;;;;;;20.60;10.80;;;-2.40;99.90;;;;;;5096080;28;20024;-84
2022/12/21 12:32:50;;;;;;;21.48;12.55;;;-2.40;99.90;;;;;;5034157;28;20061;-84
2022/12/21 12:35:34;;;;;;;19.52;13.02;;;-2.40;99.90;;;;;;5033347;28;20060;-85
2022/12/21 12:38:14;;;;;;;16.30;9.35;;;-2.30;99.90;;;;;;5015836;28;20065;-86
2022/12/21 12:41:00;;;;;;;24.38;12.52;;;-2.30;99.90;;;;;;5032717;28;20026;-85
2022/12/21 12:43:48;;;;;;;22.00;12.82;;;-2.30;99.90;;;;;;5031148;28;20043;-85
2022/12/21 12:46:44;;;;;;;28.05;18.25;;;-2.30;99.90;;;;;;5032308;28;20422;-84
2022/12/21 12:49:32;;;;;;;18.17;10.67;;;-2.20;99.90;;;;;;5033173;28;20125;-84
2022/12/21 12:52:21;;;;;;;14.80;8.52;;;-2.20;99.90;;;;;;5035799;28;20029;-83
2022/12/21 12:54:56;;;;;;;21.80;11.07;;;-2.20;99.90;;;;;;5015348;28;20022;-85
2022/12/21 12:57:33;;;;;;;37.13;18.55;;;-2.20;99.90;;;;;;5017482;28;20038;-85
2022/12/21 13:00:08;;;;;;;16.15;9.00;;;-2.20;99.90;;;;;;5031235;28;20477;-84
2022/12/21 13:02:43;;;;;;;16.05;9.70;;;-2.20;99.90;;;;;;5048398;28;20040;-85
2022/12/21 13:05:24;;;;;;;22.92;13.95;;;-2.20;99.90;;;;;;5094045;28;20455;-85
2022/12/21 13:07:55;;;;;;;20.50;11.88;;;-2.20;99.90;;;;;;5075862;28;20366;-83
2022/12/21 13:10:36;;;;;;;21.92;14.27;;;-2.30;99.90;;;;;;5094729;28;20050;-86
2022/12/21 13:13:30;;;;;;;20.73;10.52;;;-2.20;99.90;;;;;;5095017;28;20440;-85